Time;durP1;ratioP1;P1;durP2;ratioP2;P2;SDS_P1;SDS_P2;PMS_P1;PMS_P2;Temp;Humidity;BMP_temperature;BMP_pressure;BME280_temperature;BME280_humidity;BME280_pressure;Samples;Min_cycle;Max_cycle;Signal;HPM_P1;HPM_P2
2022/09/29 00:00:09;;;;;;;;;;;;;;;15.77;68.04;99650.97;1020912;29;698;-68
2022/09/29 00:01:01;;;;;;;;;;;;;;;15.77;67.91;99650.97;1020580;29;623;-71
2022/09/29 00:01:51;;;;;;;;;;;;;;;15.78;67.90;99653.50;1020596;29;644;-70
2022/09/29 00:02:42;;;;;;;;;;;;;;;15.80;67.83;99656.00;1020477;29;631;-70
2022/09/29 00:03:32;;;;;;;;;;;;;;;15.79;67.86;99647.13;1021040;29;669;-70
2022/09/29 00:04:22;;;;;;;;;;;;;;;15.80;67.76;99647.97;1024517;29;718;-70
2022/09/29 00:05:13;;;;;;;;;;;;;;;15.78;67.72;99637.38;1025646;28;715;-70
2022/09/29 00:06:03;;;;;;;;;;;;;;;15.81;68.26;99639.75;1021725;28;728;-69
2022/09/29 00:06:54;;;;;;;;;;;;;;;15.78;67.70;99645.44;1020294;29;636;-70
2022/09/29 00:07:44;;;;;;;;;;;;;;;15.79;67.52;99647.13;1020356;29;651;-70
2022/09/29 00:08:35;;;;;;;;;;;;;;;15.79;67.43;99646.28;1020241;29;627;-69
2022/09/29 00:09:25;;;;;;;;;;;;;;;15.80;67.79;99639.91;1020191;29;717;-71
2022/09/29 00:10:16;;;;;;;;;;;;;;;15.79;67.90;99630.16;1020183;29;635;-69
2022/09/29 00:11:06;;;;;;;;;;;;;;;15.77;68.07;99643.75;1020833;29;679;-70
2022/09/29 00:11:57;;;;;;;;;;;;;;;15.77;67.70;99637.53;1020241;29;641;-69
2022/09/29 00:12:47;;;;;;;;;;;;;;;15.78;67.76;99639.22;1020328;29;742;-69
2022/09/29 00:13:37;;;;;;;;;;;;;;;15.81;67.64;99637.06;1020688;29;1899;-69
2022/09/29 00:14:28;;;;;;;;;;;;;;;15.79;67.61;99643.59;1020833;29;627;-69
2022/09/29 00:15:18;;;;;;;;;;;;;;;15.79;67.59;99640.91;1024487;29;736;-69
2022/09/29 00:16:09;;;;;;;;;;;;;;;15.78;67.88;99642.75;1025118;28;1543;-70
2022/09/29 00:16:59;;;;;;;;;;;;;;;15.76;67.78;99642.09;1021455;29;646;-69
2022/09/29 00:17:50;;;;;;;;;;;;;;;15.74;67.84;99645.94;1020273;29;707;-70
2022/09/29 00:18:40;;;;;;;;;;;;;;;15.76;67.70;99652.00;1020059;29;987;-70
2022/09/29 00:19:32;;;;;;;;;;;;;;;15.74;67.92;99648.63;1020886;29;702;-70
2022/09/29 00:20:22;;;;;;;;;;;;;;;15.71;67.75;99651.63;1020027;29;1626;-70
2022/09/29 00:21:13;;;;;;;;;;;;;;;15.74;67.64;99641.41;1021317;29;685;-70
2022/09/29 00:22:03;;;;;;;;;;;;;;;15.75;67.61;99642.25;1020801;29;706;-70
2022/09/29 00:22:54;;;;;;;;;;;;;;;15.76;67.69;99642.09;1020891;29;678;-71
2022/09/29 00:23:44;;;;;;;;;;;;;;;15.76;67.79;99635.88;1020815;29;686;-71
2022/09/29 00:24:35;;;;;;;;;;;;;;;15.74;67.50;99641.41;1020660;29;589;-71
2022/09/29 00:25:25;;;;;;;;;;;;;;;15.71;67.73;99644.41;1020688;29;636;-71
2022/09/29 00:26:16;;;;;;;;;;;;;;;15.72;67.95;99637.19;1021946;29;655;-71
2022/09/29 00:27:06;;;;;;;;;;;;;;;15.73;67.64;99636.19;1021359;29;694;-71
2022/09/29 00:27:57;;;;;;;;;;;;;;;15.76;67.79;99633.19;1020664;29;615;-71
2022/09/29 00:28:47;;;;;;;;;;;;;;;15.72;67.78;99629.97;1021377;29;687;-69
2022/09/29 00:29:38;;;;;;;;;;;;;;;15.76;67.64;99641.25;1020751;29;580;-69
2022/09/29 00:30:28;;;;;;;;;;;;;;;15.72;67.88;99632.66;1020802;29;636;-69
2022/09/29 00:31:19;;;;;;;;;;;;;;;15.71;67.68;99635.50;1020709;29;774;-69
2022/09/29 00:32:09;;;;;;;;;;;;;;;15.73;67.61;99631.66;1021373;29;624;-71
2022/09/29 00:32:59;;;;;;;;;;;;;;;15.74;67.65;99632.50;1025069;29;749;-71
2022/09/29 00:33:50;;;;;;;;;;;;;;;15.72;67.75;99631.81;1024284;29;651;-70
2022/09/29 00:34:40;;;;;;;;;;;;;;;15.71;67.69;99636.34;1021109;29;579;-70
2022/09/29 00:35:31;;;;;;;;;;;;;;;15.73;67.74;99633.50;1020663;29;636;-71
2022/09/29 00:36:21;;;;;;;;;;;;;;;15.72;67.45;99635.34;1020743;29;806;-70
2022/09/29 00:37:13;;;;;;;;;;;;;;;15.72;67.65;99631.81;1020260;29;730;-71
2022/09/29 00:38:03;;;;;;;;;;;;;;;15.72;67.59;99631.81;1021912;29;757;-71
2022/09/29 00:38:53;;;;;;;;;;;;;;;15.73;67.23;99631.66;1021360;29;1149;-71
2022/09/29 00:39:44;;;;;;;;;;;;;;;15.71;67.83;99633.66;1021268;29;694;-70
2022/09/29 00:40:35;;;;;;;;;;;;;;;15.71;67.81;99633.66;1021302;29;639;-68
2022/09/29 00:41:25;;;;;;;;;;;;;;;15.72;67.40;99631.81;1020717;29;695;-68
2022/09/29 00:42:15;;;;;;;;;;;;;;;15.73;67.57;99638.88;1021217;29;651;-69
2022/09/29 00:43:06;;;;;;;;;;;;;;;15.76;67.60;99641.25;1020696;29;706;-71
2022/09/29 00:43:56;;;;;;;;;;;;;;;15.72;67.58;99637.19;1020800;29;711;-69
2022/09/29 00:44:47;;;;;;;;;;;;;;;15.69;67.43;99640.19;1020733;29;604;-70
2022/09/29 00:45:37;;;;;;;;;;;;;;;15.68;67.68;99630.47;1020729;29;729;-70
2022/09/29 00:46:28;;;;;;;;;;;;;;;15.72;67.51;99635.34;1020906;29;643;-70
2022/09/29 00:47:18;;;;;;;;;;;;;;;15.71;67.39;99638.19;1025261;28;1418;-70
2022/09/29 00:48:08;;;;;;;;;;;;;;;15.65;68.01;99638.84;1020823;29;635;-70
2022/09/29 00:48:59;;;;;;;;;;;;;;;15.71;67.46;99643.56;1020768;29;694;-70
2022/09/29 00:49:50;;;;;;;;;;;;;;;15.69;67.49;99643.72;1019865;29;656;-70
2022/09/29 00:50:41;;;;;;;;;;;;;;;15.69;67.68;99632.16;1019525;29;728;-69
2022/09/29 00:51:31;;;;;;;;;;;;;;;15.70;67.58;99642.72;1020248;29;543;-69
2022/09/29 00:52:21;;;;;;;;;;;;;;;15.70;67.38;99634.66;1023115;29;651;-69
2022/09/29 00:53:12;;;;;;;;;;;;;;;15.71;67.34;99633.66;1024905;29;647;-70
2022/09/29 00:54:03;;;;;;;;;;;;;;;15.70;67.36;99642.72;1020988;29;1129;-70
2022/09/29 00:54:53;;;;;;;;;;;;;;;15.66;67.68;99632.47;1020170;29;678;-71
2022/09/29 00:55:44;;;;;;;;;;;;;;;15.68;67.34;99642.03;1019517;29;564;-71
2022/09/29 00:56:34;;;;;;;;;;;;;;;15.65;67.79;99641.53;1023327;29;706;-70
2022/09/29 00:57:24;;;;;;;;;;;;;;;15.64;67.59;99640.69;1025453;28;729;-71
2022/09/29 00:58:15;;;;;;;;;;;;;;;15.62;67.54;99640.84;1020777;29;636;-71
2022/09/29 00:59:05;;;;;;;;;;;;;;;15.65;67.71;99642.38;1020693;29;698;-70
2022/09/29 00:59:56;;;;;;;;;;;;;;;15.68;67.55;99638.53;1020380;29;967;-70
2022/09/29 01:00:46;;;;;;;;;;;;;;;15.67;67.48;99650.25;1020637;29;674;-70
2022/09/29 01:01:37;;;;;;;;;;;;;;;15.66;67.75;99651.25;1021215;29;706;-71
2022/09/29 01:02:27;;;;;;;;;;;;;;;15.65;67.47;99644.22;1019578;29;655;-71
2022/09/29 01:03:19;;;;;;;;;;;;;;;15.70;67.52;99641.88;1019638;29;881;-70
2022/09/29 01:04:09;;;;;;;;;;;;;;;15.66;67.61;99649.41;1020663;29;644;-71
2022/09/29 01:04:59;;;;;;;;;;;;;;;15.66;67.59;99645.88;1020718;29;674;-70
2022/09/29 01:05:50;;;;;;;;;;;;;;;15.62;67.56;99643.53;1020589;29;635;-70
2022/09/29 01:06:40;;;;;;;;;;;;;;;15.66;67.71;99643.22;1020704;29;617;-71
2022/09/29 01:07:32;;;;;;;;;;;;;;;15.69;66.99;99642.88;1020568;29;635;-71
2022/09/29 01:08:23;;;;;;;;;;;;;;;15.69;67.43;99632.16;1019467;29;659;-71
2022/09/29 01:09:13;;;;;;;;;;;;;;;15.67;67.32;99636.84;1020620;29;614;-71
2022/09/29 01:10:05;;;;;;;;;;;;;;;15.63;67.38;99639.84;1020543;29;800;-71
2022/09/29 01:10:55;;;;;;;;;;;;;;;15.61;67.34;99636.47;1019690;29;659;-72
2022/09/29 01:11:46;;;;;;;;;;;;;;;15.61;67.37;99639.16;1023119;29;678;-70
2022/09/29 01:12:37;;;;;;;;;;;;;;;15.60;67.40;99632.09;1024762;28;635;-70
2022/09/29 01:13:27;;;;;;;;;;;;;;;15.59;67.58;99635.78;1019966;29;1910;-70
2022/09/29 01:14:19;;;;;;;;;;;;;;;15.59;67.43;99635.78;1020661;29;635;-70
2022/09/29 01:15:09;;;;;;;;;;;;;;;15.60;67.49;99636.63;1020664;29;678;-70
2022/09/29 01:16:00;;;;;;;;;;;;;;;15.63;67.21;99637.16;1020455;29;1603;-70
2022/09/29 01:16:50;;;;;;;;;;;;;;;15.65;67.50;99630.78;1019936;29;1416;-70
2022/09/29 01:17:41;;;;;;;;;;;;;;;15.67;67.12;99628.78;1020403;29;697;-70
2022/09/29 01:18:31;;;;;;;;;;;;;;;15.66;66.98;99635.16;1020538;29;754;-70
2022/09/29 01:19:22;;;;;;;;;;;;;;;15.63;67.39;99637.16;1020604;29;643;-70
2022/09/29 01:20:12;;;;;;;;;;;;;;;15.65;67.25;99638.84;1021214;29;627;-70
2022/09/29 01:21:02;;;;;;;;;;;;;;;15.61;67.63;99639.16;1020698;29;635;-70
2022/09/29 01:21:53;;;;;;;;;;;;;;;15.59;67.29;99641.16;1020450;29;706;-70
2022/09/29 01:22:43;;;;;;;;;;;;;;;15.61;67.45;99639.16;1020577;29;611;-70
2022/09/29 01:23:34;;;;;;;;;;;;;;;15.62;67.37;99637.31;1020456;29;687;-69
2022/09/29 01:24:24;;;;;;;;;;;;;;;15.61;66.97;99636.47;1019967;29;1523;-70
2022/09/29 01:25:15;;;;;;;;;;;;;;;15.60;67.33;99640.16;1016647;29;701;-70
2022/09/29 01:26:05;;;;;;;;;;;;;;;15.65;67.25;99638.84;1016550;29;635;-70
2022/09/29 01:26:55;;;;;;;;;;;;;;;15.60;67.05;99633.94;1015747;29;828;-69
2022/09/29 01:27:46;;;;;;;;;;;;;;;15.52;67.51;99636.56;1016427;29;627;-70
2022/09/29 01:28:36;;;;;;;;;;;;;;;15.55;67.58;99639.81;1015893;29;667;-70
2022/09/29 01:29:27;;;;;;;;;;;;;;;15.56;67.32;99636.13;1016481;29;643;-70
2022/09/29 01:30:17;;;;;;;;;;;;;;;15.59;67.27;99641.16;1016524;29;697;-70
2022/09/29 01:31:08;;;;;;;;;;;;;;;15.60;67.32;99642.00;1017099;29;819;-70
2022/09/29 01:31:58;;;;;;;;;;;;;;;15.62;67.18;99640.84;1016647;29;627;-70
2022/09/29 01:32:48;;;;;;;;;;;;;;;15.62;67.16;99640.00;1016674;29;670;-70
2022/09/29 01:33:39;;;;;;;;;;;;;;;15.56;67.11;99644.19;1016541;29;1895;-70
2022/09/29 01:34:29;;;;;;;;;;;;;;;15.58;66.86;99642.19;1016747;29;591;-70
2022/09/29 01:35:20;;;;;;;;;;;;;;;15.56;67.22;99641.50;1015463;29;568;-70
2022/09/29 01:36:10;;;;;;;;;;;;;;;15.60;67.20;99642.84;1016642;29;623;-70
2022/09/29 01:37:01;;;;;;;;;;;;;;;15.63;67.05;99644.38;1016546;29;714;-70
2022/09/29 01:37:51;;;;;;;;;;;;;;;15.59;67.07;99643.84;1016016;29;644;-70
2022/09/29 01:38:41;;;;;;;;;;;;;;;15.57;67.43;99639.66;1016542;29;655;-70
2022/09/29 01:39:32;;;;;;;;;;;;;;;15.54;67.16;99643.47;1016546;29;629;-71
2022/09/29 01:40:22;;;;;;;;;;;;;;;15.57;67.27;99643.19;1016130;29;655;-70
2022/09/29 01:41:13;;;;;;;;;;;;;;;15.60;66.98;99644.69;1015895;29;729;-70
2022/09/29 01:42:03;;;;;;;;;;;;;;;15.58;66.83;99647.56;1016565;29;623;-71
2022/09/29 01:42:53;;;;;;;;;;;;;;;15.62;67.13;99646.22;1016617;29;654;-70
2022/09/29 01:43:44;;;;;;;;;;;;;;;15.59;66.99;99645.69;1016541;29;674;-71
2022/09/29 01:44:34;;;;;;;;;;;;;;;15.60;66.70;99648.22;1016591;29;694;-71
2022/09/29 01:45:25;;;;;;;;;;;;;;;15.60;66.91;99645.53;1015910;29;643;-71
2022/09/29 01:46:15;;;;;;;;;;;;;;;15.62;66.91;99651.59;1018510;29;1595;-71
2022/09/29 01:47:06;;;;;;;;;;;;;;;15.59;66.83;99651.06;1020767;29;1227;-70
2022/09/29 01:47:56;;;;;;;;;;;;;;;15.58;67.02;99644.88;1019888;29;690;-71
2022/09/29 01:48:47;;;;;;;;;;;;;;;15.59;66.90;99646.53;1020028;29;722;-71
2022/09/29 01:49:37;;;;;;;;;;;;;;;15.55;67.16;99645.19;1019445;29;667;-71
2022/09/29 01:50:27;;;;;;;;;;;;;;;15.56;66.90;99646.03;1020574;29;718;-70
2022/09/29 01:51:18;;;;;;;;;;;;;;;15.56;67.10;99646.88;1019883;29;634;-71
2022/09/29 01:52:08;;;;;;;;;;;;;;;15.54;67.11;99648.84;1020025;29;604;-71
2022/09/29 01:52:59;;;;;;;;;;;;;;;15.55;66.93;99655.94;1019621;29;771;-70
2022/09/29 01:53:49;;;;;;;;;;;;;;;15.56;66.67;99652.25;1019838;29;1902;-70
2022/09/29 01:54:39;;;;;;;;;;;;;;;15.57;66.80;99659.31;1019975;29;655;-70
2022/09/29 01:55:30;;;;;;;;;;;;;;;15.59;66.79;99656.44;1019921;29;706;-71
2022/09/29 01:56:20;;;;;;;;;;;;;;;15.58;67.08;99652.94;1020488;29;713;-70
2022/09/29 01:57:11;;;;;;;;;;;;;;;15.56;66.83;99654.94;1019796;29;584;-70
2022/09/29 01:58:01;;;;;;;;;;;;;;;15.54;67.00;99659.59;1019846;29;627;-70
2022/09/29 01:58:52;;;;;;;;;;;;;;;15.53;67.11;99657.91;1016993;29;707;-70
2022/09/29 01:59:42;;;;;;;;;;;;;;;15.51;66.88;99661.75;1016908;29;1214;-70
2022/09/29 02:00:33;;;;;;;;;;;;;;;15.53;67.00;99652.53;1017080;29;742;-69
2022/09/29 02:01:23;;;;;;;;;;;;;;;15.54;66.89;99654.22;1017003;29;651;-70
2022/09/29 02:02:13;;;;;;;;;;;;;;;15.55;66.87;99653.25;1017118;29;659;-70
2022/09/29 02:03:04;;;;;;;;;;;;;;;15.51;67.13;99654.53;1017134;29;675;-70
2022/09/29 02:03:54;;;;;;;;;;;;;;;15.50;66.99;99652.84;1017123;29;588;-70
2022/09/29 02:04:45;;;;;;;;;;;;;;;15.53;66.87;99652.53;1017119;29;764;-70
2022/09/29 02:05:35;;;;;;;;;;;;;;;15.49;66.89;99653.00;1017010;29;647;-70
2022/09/29 02:06:26;;;;;;;;;;;;;;;15.48;66.99;99649.47;1017062;29;703;-71
2022/09/29 02:07:16;;;;;;;;;;;;;;;15.49;67.11;99655.69;1017093;29;647;-70
2022/09/29 02:08:06;;;;;;;;;;;;;;;15.51;66.93;99648.31;1017319;29;683;-71
2022/09/29 02:08:57;;;;;;;;;;;;;;;15.47;66.95;99647.78;1016818;29;698;-70
2022/09/29 02:09:47;;;;;;;;;;;;;;;15.47;67.00;99655.84;1017101;29;746;-70
2022/09/29 02:10:38;;;;;;;;;;;;;;;15.49;66.94;99651.16;1017099;29;584;-70
2022/09/29 02:11:28;;;;;;;;;;;;;;;15.46;66.92;99650.63;1017154;29;699;-70
2022/09/29 02:12:19;;;;;;;;;;;;;;;15.49;66.84;99645.78;1017049;29;667;-70
2022/09/29 02:13:09;;;;;;;;;;;;;;;15.46;66.97;99656.00;1017025;29;698;-71
2022/09/29 02:14:00;;;;;;;;;;;;;;;15.48;67.15;99654.84;1017100;29;683;-71
2022/09/29 02:14:50;;;;;;;;;;;;;;;15.46;67.02;99650.63;1017080;29;687;-70
2022/09/29 02:15:40;;;;;;;;;;;;;;;15.46;66.94;99650.63;1017131;29;683;-73
2022/09/29 02:16:31;;;;;;;;;;;;;;;15.50;66.81;99649.31;1020910;29;643;-70
2022/09/29 02:17:22;;;;;;;;;;;;;;;15.47;66.83;99661.22;1020430;29;722;-70
2022/09/29 02:18:12;;;;;;;;;;;;;;;15.47;67.04;99653.16;1021415;29;610;-69
2022/09/29 02:19:02;;;;;;;;;;;;;;;15.48;66.83;99648.63;1020936;29;651;-69
2022/09/29 02:19:53;;;;;;;;;;;;;;;15.49;66.96;99647.63;1020374;29;647;-70
2022/09/29 02:20:43;;;;;;;;;;;;;;;15.52;66.32;99656.22;1025304;28;631;-70
2022/09/29 02:21:34;;;;;;;;;;;;;;;15.48;67.00;99645.94;1024040;29;655;-69
2022/09/29 02:22:24;;;;;;;;;;;;;;;15.51;66.96;99649.16;1020375;29;770;-70
2022/09/29 02:23:15;;;;;;;;;;;;;;;15.45;66.83;99648.94;1020956;29;662;-70
2022/09/29 02:24:05;;;;;;;;;;;;;;;15.48;67.09;99656.69;1020380;29;659;-70
2022/09/29 02:24:57;;;;;;;;;;;;;;;15.44;66.77;99641.88;1020910;29;691;-70
2022/09/29 02:25:48;;;;;;;;;;;;;;;15.45;66.98;99651.63;1021531;29;634;-70
2022/09/29 02:26:39;;;;;;;;;;;;;;;15.43;66.82;99648.25;1020367;29;715;-70
2022/09/29 02:27:32;;;;;;;;;;;;;;;15.44;66.97;99644.56;1020955;29;552;-70
2022/09/29 02:28:23;;;;;;;;;;;;;;;15.46;66.86;99646.09;1020853;29;686;-70
2022/09/29 02:29:13;;;;;;;;;;;;;;;15.46;66.84;99643.41;1020956;29;694;-70
2022/09/29 02:30:05;;;;;;;;;;;;;;;15.47;66.80;99650.47;1020386;29;671;-70
2022/09/29 02:30:55;;;;;;;;;;;;;;;15.43;66.95;99646.41;1020826;29;706;-69
2022/09/29 02:31:46;;;;;;;;;;;;;;;15.47;66.73;99645.09;1020430;29;655;-69
2022/09/29 02:32:36;;;;;;;;;;;;;;;15.42;66.57;99650.09;1020888;29;633;-69
2022/09/29 02:33:26;;;;;;;;;;;;;;;15.43;67.00;99654.47;1019903;29;1965;-69
2022/09/29 02:34:17;;;;;;;;;;;;;;;15.42;67.15;99649.25;1020246;29;620;-70
2022/09/29 02:35:07;;;;;;;;;;;;;;;15.42;66.85;99649.25;1020427;29;699;-69
2022/09/29 02:35:58;;;;;;;;;;;;;;;15.44;66.82;99652.63;1020323;29;553;-69
2022/09/29 02:36:48;;;;;;;;;;;;;;;15.44;66.77;99648.09;1020277;29;771;-69
2022/09/29 02:37:39;;;;;;;;;;;;;;;15.43;67.06;99651.78;1020276;29;680;-69
2022/09/29 02:38:29;;;;;;;;;;;;;;;15.46;66.79;99654.16;1020900;29;631;-70
2022/09/29 02:39:20;;;;;;;;;;;;;;;15.43;66.80;99657.16;1020389;29;699;-70
2022/09/29 02:40:11;;;;;;;;;;;;;;;15.40;66.51;99652.13;1021192;29;702;-70
2022/09/29 02:41:01;;;;;;;;;;;;;;;15.44;66.57;99653.47;1022244;29;710;-70
2022/09/29 02:41:52;;;;;;;;;;;;;;;15.45;66.77;99659.69;1021055;29;612;-70
2022/09/29 02:42:43;;;;;;;;;;;;;;;15.43;66.84;99650.94;1021082;29;612;-70
2022/09/29 02:43:33;;;;;;;;;;;;;;;15.44;66.55;99653.47;1025903;28;686;-70
2022/09/29 02:44:24;;;;;;;;;;;;;;;15.43;66.73;99650.94;1025394;29;662;-70
2022/09/29 02:45:14;;;;;;;;;;;;;;;15.43;66.72;99649.09;1021157;29;683;-70
2022/09/29 02:46:05;;;;;;;;;;;;;;;15.45;66.89;99651.63;1020974;29;1655;-70
2022/09/29 02:46:55;;;;;;;;;;;;;;;15.43;66.78;99651.78;1020608;29;1242;-70
2022/09/29 02:47:46;;;;;;;;;;;;;;;15.42;66.83;99647.41;1019975;29;1624;-70
2022/09/29 02:48:36;;;;;;;;;;;;;;;15.40;66.78;99651.28;1021082;29;628;-70
2022/09/29 02:49:27;;;;;;;;;;;;;;;15.38;66.57;99651.44;1020386;29;973;-70
2022/09/29 02:50:17;;;;;;;;;;;;;;;15.39;66.52;99654.97;1021225;29;742;-70
2022/09/29 02:51:07;;;;;;;;;;;;;;;15.36;66.98;99656.13;1021195;29;694;-70
2022/09/29 02:51:58;;;;;;;;;;;;;;;15.40;66.74;99652.13;1021100;29;636;-70
2022/09/29 02:52:48;;;;;;;;;;;;;;;15.42;66.63;99658.16;1021224;29;729;-70
2022/09/29 02:53:39;;;;;;;;;;;;;;;15.40;66.71;99657.50;1021034;29;1895;-70
2022/09/29 02:54:29;;;;;;;;;;;;;;;15.43;66.24;99657.16;1020552;29;759;-70
2022/09/29 02:55:20;;;;;;;;;;;;;;;15.39;66.69;99647.75;1021062;29;584;-70
2022/09/29 02:56:10;;;;;;;;;;;;;;;15.39;66.80;99655.81;1021117;29;663;-71
2022/09/29 02:57:01;;;;;;;;;;;;;;;15.40;66.53;99652.13;1020435;29;675;-71
2022/09/29 02:57:51;;;;;;;;;;;;;;;15.37;66.77;99652.44;1021045;29;648;-70
2022/09/29 02:58:42;;;;;;;;;;;;;;;15.38;66.80;99653.28;1021114;29;639;-70
2022/09/29 02:59:32;;;;;;;;;;;;;;;15.37;66.83;99651.59;1020905;29;1121;-70
2022/09/29 03:00:23;;;;;;;;;;;;;;;15.38;66.88;99654.13;1021095;29;671;-70
2022/09/29 03:01:15;;;;;;;;;;;;;;;15.38;66.58;99645.22;1024771;29;655;-70
2022/09/29 03:02:05;;;;;;;;;;;;;;;15.39;66.87;99645.06;1024283;29;690;-71
2022/09/29 03:02:56;;;;;;;;;;;;;;;15.37;66.48;99646.22;1021593;29;770;-70
2022/09/29 03:03:46;;;;;;;;;;;;;;;15.41;66.42;99659.16;1020966;29;775;-70
2022/09/29 03:04:36;;;;;;;;;;;;;;;15.42;66.45;99654.63;1021154;29;655;-70
2022/09/29 03:05:27;;;;;;;;;;;;;;;15.39;66.89;99650.44;1021044;29;647;-70
2022/09/29 03:06:18;;;;;;;;;;;;;;;15.34;67.07;99652.75;1021023;29;622;-70
2022/09/29 03:07:08;;;;;;;;;;;;;;;15.35;66.94;99649.06;1021025;29;694;-70
2022/09/29 03:07:58;;;;;;;;;;;;;;;15.38;66.72;99643.38;1020600;29;686;-70
2022/09/29 03:08:49;;;;;;;;;;;;;;;15.34;66.86;99647.38;1020962;29;644;-70
2022/09/29 03:09:39;;;;;;;;;;;;;;;15.35;66.70;99654.44;1020544;29;683;-70
2022/09/29 03:10:30;;;;;;;;;;;;;;;15.36;66.78;99650.75;1021061;29;737;-70
2022/09/29 03:11:20;;;;;;;;;;;;;;;15.38;66.37;99654.13;1020499;29;766;-71
2022/09/29 03:12:11;;;;;;;;;;;;;;;15.36;66.75;99656.13;1021011;29;643;-71
2022/09/29 03:13:01;;;;;;;;;;;;;;;15.39;66.66;99654.97;1020949;29;1105;-71
2022/09/29 03:13:52;;;;;;;;;;;;;;;15.39;66.33;99654.97;1020902;29;1931;-71
2022/09/29 03:14:42;;;;;;;;;;;;;;;15.37;66.40;99649.75;1020812;29;631;-70
2022/09/29 03:15:33;;;;;;;;;;;;;;;15.38;66.53;99651.44;1020860;29;698;-70
2022/09/29 03:16:23;;;;;;;;;;;;;;;15.35;66.56;99643.72;1017503;29;734;-70
2022/09/29 03:17:13;;;;;;;;;;;;;;;15.38;66.60;99656.81;1017696;29;651;-71
2022/09/29 03:18:04;;;;;;;;;;;;;;;15.38;66.45;99654.13;1017598;29;741;-71
2022/09/29 03:18:55;;;;;;;;;;;;;;;15.38;66.62;99659.50;1017711;29;706;-71
2022/09/29 03:19:46;;;;;;;;;;;;;;;15.39;66.51;99658.50;1016733;29;706;-70
2022/09/29 03:20:36;;;;;;;;;;;;;;;15.39;66.69;99653.13;1017527;29;682;-70
2022/09/29 03:21:26;;;;;;;;;;;;;;;15.38;66.47;99659.50;1017686;29;644;-70
2022/09/29 03:22:18;;;;;;;;;;;;;;;15.35;66.65;99657.13;1016523;29;640;-70
2022/09/29 03:23:08;;;;;;;;;;;;;;;15.35;66.46;99656.28;1017664;29;607;-70
2022/09/29 03:23:58;;;;;;;;;;;;;;;15.36;66.39;99661.50;1016695;29;648;-70
2022/09/29 03:24:49;;;;;;;;;;;;;;;15.35;66.51;99657.13;1017405;29;616;-70
2022/09/29 03:25:40;;;;;;;;;;;;;;;15.33;66.51;99656.44;1017660;29;683;-70
2022/09/29 03:26:31;;;;;;;;;;;;;;;15.30;66.80;99654.06;1017496;29;691;-70
2022/09/29 03:27:22;;;;;;;;;;;;;;;15.31;66.81;99653.06;1016470;29;636;-70
2022/09/29 03:28:12;;;;;;;;;;;;;;;15.32;66.22;99654.75;1017656;29;800;-70
2022/09/29 03:29:03;;;;;;;;;;;;;;;15.37;66.27;99656.97;1016409;29;672;-70
2022/09/29 03:29:53;;;;;;;;;;;;;;;15.38;66.17;99653.28;1016559;29;574;-70
2022/09/29 03:30:44;;;;;;;;;;;;;;;15.35;66.40;99653.59;1016734;29;639;-70
2022/09/29 03:31:34;;;;;;;;;;;;;;;15.29;66.37;99655.06;1016458;29;703;-71
2022/09/29 03:32:25;;;;;;;;;;;;;;;15.29;66.60;99655.06;1017570;29;718;-71
2022/09/29 03:33:17;;;;;;;;;;;;;;;15.28;66.69;99648.84;1017545;29;619;-70
2022/09/29 03:34:07;;;;;;;;;;;;;;;15.29;66.35;99649.69;1017620;29;707;-70
2022/09/29 03:34:58;;;;;;;;;;;;;;;15.28;66.28;99648.84;1017557;29;643;-70
2022/09/29 03:35:48;;;;;;;;;;;;;;;15.28;66.64;99648.84;1020215;29;639;-70
2022/09/29 03:36:40;;;;;;;;;;;;;;;15.33;66.34;99653.75;1021727;29;717;-70
2022/09/29 03:37:30;;;;;;;;;;;;;;;15.34;66.26;99651.91;1017546;29;730;-69
2022/09/29 03:38:21;;;;;;;;;;;;;;;15.36;66.08;99656.13;1017575;29;725;-70
2022/09/29 03:39:11;;;;;;;;;;;;;;;15.38;66.18;99647.91;1017528;29;702;-69
2022/09/29 03:40:02;;;;;;;;;;;;;;;15.37;66.27;99659.66;1017605;29;698;-69
2022/09/29 03:40:52;;;;;;;;;;;;;;;15.33;66.57;99651.06;1017642;29;678;-69
2022/09/29 03:41:43;;;;;;;;;;;;;;;15.30;66.04;99662.13;1017623;29;708;-69
2022/09/29 03:42:33;;;;;;;;;;;;;;;15.29;66.16;99660.44;1017599;29;619;-69
2022/09/29 03:43:24;;;;;;;;;;;;;;;15.31;66.38;99658.44;1017528;29;674;-70
2022/09/29 03:44:14;;;;;;;;;;;;;;;15.30;66.22;99656.75;1016353;29;668;-70
2022/09/29 03:45:04;;;;;;;;;;;;;;;15.23;66.72;99661.06;1017572;29;666;-70
2022/09/29 03:45:55;;;;;;;;;;;;;;;15.25;66.38;99659.06;1020214;29;1682;-70
2022/09/29 03:46:46;;;;;;;;;;;;;;;15.32;66.29;99661.97;1021391;29;1258;-70
2022/09/29 03:47:36;;;;;;;;;;;;;;;15.28;66.33;99664.97;1020312;29;628;-70
2022/09/29 03:48:30;;;;;;;;;;;;;;;15.26;66.48;99669.66;1021024;29;619;-70
2022/09/29 03:49:20;;;;;;;;;;;;;;;15.28;66.03;99659.59;1020340;29;647;-71
2022/09/29 03:50:10;;;;;;;;;;;;;;;15.30;66.43;99672.84;1020300;29;686;-70
2022/09/29 03:51:01;;;;;;;;;;;;;;;15.29;66.26;99669.34;1019965;29;591;-70
2022/09/29 03:51:51;;;;;;;;;;;;;;;15.27;65.83;99663.28;1020293;29;769;-71
2022/09/29 03:52:42;;;;;;;;;;;;;;;15.26;66.23;99664.28;1020887;29;628;-70
2022/09/29 03:53:32;;;;;;;;;;;;;;;15.28;66.31;99667.66;1020280;29;1898;-70
2022/09/29 03:54:25;;;;;;;;;;;;;;;15.32;66.27;99667.34;1017593;29;659;-70
2022/09/29 03:55:15;;;;;;;;;;;;;;;15.29;65.87;99671.16;1017521;29;635;-70
2022/09/29 03:56:06;;;;;;;;;;;;;;;15.26;66.14;99666.97;1018960;29;1613;-70
2022/09/29 03:56:56;;;;;;;;;;;;;;;15.28;66.28;99666.81;1020936;29;660;-70
2022/09/29 03:57:47;;;;;;;;;;;;;;;15.24;66.04;99668.97;1021507;29;706;-70
2022/09/29 03:58:37;;;;;;;;;;;;;;;15.20;66.35;99664.09;1020854;29;770;-70
2022/09/29 03:59:27;;;;;;;;;;;;;;;15.22;66.08;99665.63;1021516;29;934;-70
2022/09/29 04:00:18;;;;;;;;;;;;;;;15.22;66.66;99670.13;1021587;29;639;-70
2022/09/29 04:01:08;;;;;;;;;;;;;;;15.24;65.91;99671.63;1020999;29;730;-71
2022/09/29 04:01:59;;;;;;;;;;;;;;;15.26;65.74;99671.47;1021337;29;670;-71
2022/09/29 04:02:49;;;;;;;;;;;;;;;15.26;65.91;99674.16;1020906;29;651;-71
2022/09/29 04:03:40;;;;;;;;;;;;;;;15.20;65.92;99670.28;1021442;29;682;-71
2022/09/29 04:04:30;;;;;;;;;;;;;;;15.24;66.13;99668.97;1020839;29;710;-72
2022/09/29 04:05:21;;;;;;;;;;;;;;;15.24;65.94;99673.47;1020939;29;619;-70
2022/09/29 04:06:11;;;;;;;;;;;;;;;15.22;65.91;99667.47;1020951;29;623;-71
2022/09/29 04:07:01;;;;;;;;;;;;;;;15.22;66.32;99673.66;1025647;28;670;-71
2022/09/29 04:07:52;;;;;;;;;;;;;;;15.23;66.25;99675.31;1024954;29;670;-71
2022/09/29 04:08:42;;;;;;;;;;;;;;;15.21;65.87;99671.13;1021113;29;655;-71
2022/09/29 04:09:33;;;;;;;;;;;;;;;15.23;66.45;99671.78;1020890;29;671;-71
2022/09/29 04:10:23;;;;;;;;;;;;;;;15.24;65.85;99674.31;1021356;29;623;-71
2022/09/29 04:11:14;;;;;;;;;;;;;;;15.25;66.14;99672.47;1020873;29;663;-71
2022/09/29 04:12:04;;;;;;;;;;;;;;;15.25;66.38;99669.78;1020839;29;620;-71
2022/09/29 04:12:54;;;;;;;;;;;;;;;15.23;66.37;99671.78;1020953;29;667;-71
2022/09/29 04:13:45;;;;;;;;;;;;;;;15.24;66.43;99674.31;1020594;29;1978;-71
2022/09/29 04:14:35;;;;;;;;;;;;;;;15.25;66.52;99678.69;1020291;29;597;-71
2022/09/29 04:15:26;;;;;;;;;;;;;;;15.28;66.48;99677.53;1020537;29;1257;-71
2022/09/29 04:16:16;;;;;;;;;;;;;;;15.28;66.34;99680.22;1016920;29;695;-71
2022/09/29 04:17:07;;;;;;;;;;;;;;;15.34;66.20;99678.75;1021100;29;667;-71
2022/09/29 04:17:57;;;;;;;;;;;;;;;15.34;66.18;99682.28;1021020;29;686;-71
2022/09/29 04:18:47;;;;;;;;;;;;;;;15.37;66.29;99673.91;1017698;29;787;-71
2022/09/29 04:19:38;;;;;;;;;;;;;;;15.39;66.37;99685.34;1017342;29;623;-71
2022/09/29 04:20:28;;;;;;;;;;;;;;;15.37;66.68;99683.81;1016879;29;628;-69
2022/09/29 04:21:19;;;;;;;;;;;;;;;15.36;66.12;99685.66;1016943;29;595;-71
2022/09/29 04:22:10;;;;;;;;;;;;;;;15.41;66.44;99691.38;1016825;29;604;-71
2022/09/29 04:23:01;;;;;;;;;;;;;;;15.40;66.64;99687.03;1017329;29;620;-71
2022/09/29 04:23:51;;;;;;;;;;;;;;;15.41;66.26;99691.38;1016901;29;579;-71
2022/09/29 04:24:41;;;;;;;;;;;;;;;15.48;66.27;99696.97;1016866;29;667;-71
2022/09/29 04:25:32;;;;;;;;;;;;;;;15.47;66.58;99693.44;1017176;29;1260;-72
2022/09/29 04:26:22;;;;;;;;;;;;;;;15.44;66.46;99693.75;1016989;29;646;-71
2022/09/29 04:27:13;;;;;;;;;;;;;;;15.53;66.43;99697.34;1017388;29;643;-71
2022/09/29 04:28:03;;;;;;;;;;;;;;;15.48;66.46;99696.97;1017454;29;607;-71
2022/09/29 04:28:54;;;;;;;;;;;;;;;15.53;66.34;99697.34;1017444;29;780;-71
2022/09/29 04:29:44;;;;;;;;;;;;;;;15.55;66.05;99696.22;1016888;29;640;-71